Time;durP1;ratioP1;P1;durP2;ratioP2;P2;SDS_P1;SDS_P2;PMS_P1;PMS_P2;Temp;Humidity;BMP_temperature;BMP_pressure;BME280_temperature;BME280_humidity;BME280_pressure;Samples;Min_cycle;Max_cycle;Signal;HPM_P1;HPM_P2
2022/09/25 00:01:03;;;;;;;10.40;7.50;;;11.60;99.90;;;;;;5011933;28;20033;-77
2022/09/25 00:03:32;;;;;;;11.38;7.38;;;11.50;99.90;;;;;;5011244;28;20029;-77
2022/09/25 00:06:07;;;;;;;8.32;6.43;;;11.50;99.90;;;;;;5015766;28;20111;-77
2022/09/25 00:08:34;;;;;;;9.00;6.65;;;11.40;99.90;;;;;;5012866;28;20506;-77
2022/09/25 00:11:12;;;;;;;10.10;7.47;;;11.40;99.90;;;;;;5013430;28;20050;-77
2022/09/25 00:13:39;;;;;;;10.93;7.45;;;11.30;99.90;;;;;;5013633;28;20040;-77
2022/09/25 00:16:07;;;;;;;12.05;8.32;;;11.30;99.90;;;;;;5013358;28;20040;-77
2022/09/25 00:21:30;;;;;;;12.23;8.43;;;11.30;99.90;;;;;;5016175;28;20044;-77
2022/09/25 00:24:08;;;;;;;10.35;8.05;;;11.20;99.90;;;;;;5016313;28;20080;-78
2022/09/25 00:26:40;;;;;;;9.57;7.22;;;11.20;99.90;;;;;;5016145;28;20026;-77
2022/09/25 00:29:07;;;;;;;8.82;6.90;;;11.20;99.90;;;;;;5004773;28;20030;-77
2022/09/25 00:31:33;;;;;;;7.88;6.47;;;11.20;99.90;;;;;;5010728;28;20458;-76
2022/09/25 00:34:03;;;;;;;10.13;5.97;;;11.10;99.90;;;;;;5014364;28;20072;-77
2022/09/25 00:36:32;;;;;;;8.60;6.30;;;11.10;99.90;;;;;;5015200;28;20033;-77
2022/09/25 00:38:58;;;;;;;11.63;6.82;;;11.10;99.90;;;;;;5013062;28;20019;-77
2022/09/25 00:41:26;;;;;;;9.20;5.93;;;11.10;99.90;;;;;;5012307;28;20028;-77
2022/09/25 00:43:56;;;;;;;8.43;6.18;;;11.00;99.90;;;;;;5007231;28;20018;-77
2022/09/25 00:46:46;;;;;;;8.90;6.30;;;11.10;99.90;;;;;;5012967;28;20031;-77
2022/09/25 00:49:14;;;;;;;7.70;5.22;;;11.00;99.90;;;;;;5005538;28;20519;-77
2022/09/25 00:51:43;;;;;;;8.52;5.18;;;11.00;99.90;;;;;;5006895;28;20037;-77
2022/09/25 00:54:30;;;;;;;7.60;5.63;;;11.00;99.90;;;;;;5011674;28;20038;-77
2022/09/25 00:57:02;;;;;;;8.82;5.38;;;11.00;99.90;;;;;;5007774;28;20026;-77
2022/09/25 00:59:35;;;;;;;7.68;4.47;;;10.90;99.90;;;;;;5007078;28;20025;-77
2022/09/25 01:02:00;;;;;;;6.80;4.72;;;10.90;99.90;;;;;;5004398;28;20105;-77
2022/09/25 01:04:29;;;;;;;7.05;4.50;;;10.90;99.90;;;;;;5005584;28;20060;-77
2022/09/25 01:07:01;;;;;;;6.43;4.45;;;10.90;99.90;;;;;;5011583;28;20065;-77
2022/09/25 01:09:28;;;;;;;5.82;4.43;;;10.90;99.90;;;;;;5009543;28;20025;-78
2022/09/25 01:11:54;;;;;;;5.22;4.03;;;10.80;99.90;;;;;;5004391;28;20595;-77
2022/09/25 01:14:26;;;;;;;5.68;4.05;;;10.80;99.90;;;;;;5010094;28;20029;-76
2022/09/25 01:16:58;;;;;;;6.47;4.80;;;10.80;99.90;;;;;;5006166;28;20036;-77
2022/09/25 01:20:01;;;;;;;4.82;3.75;;;10.80;99.90;;;;;;5014501;28;20042;-77
2022/09/25 01:22:52;;;;;;;4.38;3.40;;;10.80;99.90;;;;;;5009226;28;20022;-77
2022/09/25 01:25:56;;;;;;;6.15;3.97;;;10.80;99.90;;;;;;5008453;28;20033;-77
2022/09/25 01:28:59;;;;;;;3.85;3.00;;;10.70;99.90;;;;;;4970394;28;20038;-76
2022/09/25 01:32:02;;;;;;;4.88;3.88;;;10.80;99.90;;;;;;5021850;28;20042;-77
2022/09/25 01:34:39;;;;;;;6.50;4.47;;;10.70;99.90;;;;;;5007313;28;20014;-77
2022/09/25 01:37:25;;;;;;;5.18;3.60;;;10.70;99.90;;;;;;5014843;28;20051;-78
2022/09/25 01:40:15;;;;;;;6.13;3.60;;;10.70;99.90;;;;;;5012685;28;20040;-78
2022/09/25 01:43:13;;;;;;;5.88;3.70;;;10.70;99.90;;;;;;5024653;28;20482;-78
2022/09/25 01:45:52;;;;;;;4.63;3.50;;;10.60;99.90;;;;;;5034084;23;21509;-73
2022/09/25 01:48:22;;;;;;;4.40;3.28;;;10.70;99.90;;;;;;5044854;28;20024;-74
2022/09/25 01:51:14;;;;;;;5.03;3.90;;;10.70;99.90;;;;;;5044405;28;20033;-74
2022/09/25 01:53:57;;;;;;;5.00;3.63;;;10.60;99.90;;;;;;5048602;28;20025;-74
2022/09/25 01:57:03;;;;;;;7.05;4.32;;;10.60;99.90;;;;;;5047430;28;20036;-74
2022/09/25 01:59:34;;;;;;;7.03;3.95;;;10.50;99.90;;;;;;5049965;28;20366;-74
2022/09/25 02:02:03;;;;;;;4.68;3.55;;;10.50;99.90;;;;;;5051128;28;20037;-74
2022/09/25 02:04:39;;;;;;;4.38;3.45;;;10.50;99.90;;;;;;5047297;28;20497;-73
2022/09/25 02:07:19;;;;;;;6.07;3.75;;;10.60;99.90;;;;;;5051959;28;20028;-74
2022/09/25 02:09:51;;;;;;;6.28;4.15;;;10.50;99.90;;;;;;5047974;28;20350;-74
2022/09/25 02:12:25;;;;;;;4.53;3.20;;;10.50;99.90;;;;;;5065601;28;20029;-73
2022/09/25 02:15:00;;;;;;;6.00;4.00;;;10.50;99.90;;;;;;5045891;28;20025;-73
2022/09/25 02:20:31;;;;;;;4.72;3.88;;;10.50;99.90;;;;;;5046683;28;20094;-73
2022/09/25 02:23:45;;;;;;;4.07;3.33;;;10.40;99.90;;;;;;5044370;28;20035;-73
2022/09/25 02:26:25;;;;;;;5.85;3.58;;;10.50;99.90;;;;;;5029455;28;20148;-74
2022/09/25 02:28:52;;;;;;;4.68;3.28;;;10.50;99.90;;;;;;5061301;28;20021;-73
2022/09/25 02:31:20;;;;;;;5.85;3.42;;;10.40;99.90;;;;;;5047470;28;20021;-73
2022/09/25 02:33:46;;;;;;;6.10;4.05;;;10.40;99.90;;;;;;5046668;28;20017;-74
2022/09/25 02:36:20;;;;;;;7.65;4.03;;;10.40;99.90;;;;;;5050883;28;20041;-74
2022/09/25 02:38:48;;;;;;;5.13;4.10;;;10.30;99.90;;;;;;5047587;28;20104;-74
2022/09/25 02:41:38;;;;;;;6.93;3.88;;;10.30;99.90;;;;;;5048014;28;20092;-74
2022/09/25 02:44:42;;;;;;;5.10;3.42;;;10.30;99.90;;;;;;5046343;28;20067;-74
2022/09/25 02:47:41;;;;;;;4.85;3.70;;;10.40;99.90;;;;;;5046884;28;20029;-74
2022/09/25 02:50:10;;;;;;;4.07;3.28;;;10.40;99.90;;;;;;5043689;28;20094;-74
2022/09/25 02:53:01;;;;;;;7.60;4.50;;;10.30;99.90;;;;;;5044438;28;20033;-74
2022/09/25 02:55:40;;;;;;;8.80;6.43;;;10.40;99.90;;;;;;5046158;28;20112;-74
2022/09/25 02:58:28;;;;;;;12.25;7.85;;;10.40;99.90;;;;;;5044691;28;20174;-73
2022/09/25 03:01:00;;;;;;;5.60;4.55;;;10.30;99.90;;;;;;5048864;28;20500;-74
2022/09/25 03:03:26;;;;;;;7.72;4.55;;;10.30;99.90;;;;;;5047306;28;20036;-74
2022/09/25 03:05:55;;;;;;;6.10;4.50;;;10.20;99.90;;;;;;5043496;28;20064;-74
2022/09/25 03:08:38;;;;;;;6.25;4.70;;;10.20;99.90;;;;;;5060824;28;20104;-74
2022/09/25 03:11:09;;;;;;;10.02;6.95;;;10.20;99.90;;;;;;5045106;28;20071;-74
2022/09/25 03:13:36;;;;;;;17.52;10.18;;;10.20;99.90;;;;;;5062664;28;20045;-74
2022/09/25 03:16:18;;;;;;;18.17;10.88;;;10.20;99.90;;;;;;5050519;28;20017;-74
2022/09/25 03:18:44;;;;;;;18.15;9.93;;;10.20;99.90;;;;;;5065639;28;20156;-74
2022/09/25 03:21:16;;;;;;;17.75;8.77;;;10.20;99.90;;;;;;5051570;28;20032;-74
2022/09/25 03:23:45;;;;;;;12.68;7.68;;;10.20;99.90;;;;;;5049387;28;20405;-74
2022/09/25 03:26:17;;;;;;;14.10;8.18;;;10.20;99.90;;;;;;5050853;28;20509;-73
2022/09/25 03:28:42;;;;;;;10.75;7.10;;;10.30;99.90;;;;;;5051285;28;20250;-74
2022/09/25 03:31:10;;;;;;;9.23;6.85;;;10.30;99.90;;;;;;5049796;28;20332;-73
2022/09/25 03:33:38;;;;;;;8.90;7.18;;;10.30;99.90;;;;;;5050025;28;20029;-74
2022/09/25 03:36:15;;;;;;;10.05;6.75;;;10.30;99.90;;;;;;5062853;28;20025;-73
2022/09/25 03:38:42;;;;;;;23.38;7.50;;;10.30;99.90;;;;;;5045716;28;20052;-73
2022/09/25 03:41:11;;;;;;;21.10;7.80;;;10.30;99.90;;;;;;5051822;28;20032;-73
2022/09/25 03:43:39;;;;;;;29.83;7.43;;;10.30;99.90;;;;;;5065310;28;20033;-73
2022/09/25 03:46:08;;;;;;;14.57;7.25;;;10.30;99.90;;;;;;5049424;28;20112;-74
2022/09/25 03:48:35;;;;;;;22.35;7.72;;;10.30;99.90;;;;;;5050785;28;20104;-74
2022/09/25 03:51:05;;;;;;;11.00;7.53;;;10.30;99.90;;;;;;5053674;28;20028;-75
2022/09/25 03:53:32;;;;;;;12.57;7.85;;;10.30;99.90;;;;;;5049296;28;20017;-75
2022/09/25 03:56:15;;;;;;;14.43;8.68;;;10.30;99.90;;;;;;5049329;28;20021;-74
2022/09/25 03:58:42;;;;;;;20.38;8.77;;;10.40;99.90;;;;;;5046320;28;20037;-75
2022/09/25 04:01:09;;;;;;;12.18;7.57;;;10.40;99.90;;;;;;5049454;28;20445;-75
2022/09/25 04:03:36;;;;;;;12.55;7.05;;;10.30;99.90;;;;;;5043740;28;20052;-74
2022/09/25 04:06:05;;;;;;;8.75;6.40;;;10.30;99.90;;;;;;5046316;28;20041;-77
2022/09/25 04:08:33;;;;;;;9.60;6.03;;;10.40;99.90;;;;;;5051027;28;20096;-76
2022/09/25 04:11:02;;;;;;;7.43;5.22;;;10.40;99.90;;;;;;5047019;28;20024;-76
2022/09/25 04:13:32;;;;;;;6.10;4.85;;;10.40;99.90;;;;;;5048698;28;20106;-76
2022/09/25 04:16:00;;;;;;;6.88;5.70;;;10.40;99.90;;;;;;5066858;28;20048;-76
2022/09/25 04:18:27;;;;;;;8.57;5.07;;;10.40;99.90;;;;;;5050640;28;20017;-76
2022/09/25 04:21:16;;;;;;;6.25;4.90;;;10.40;99.90;;;;;;5043722;28;20064;-73
2022/09/25 04:26:29;;;;;;;8.77;4.78;;;10.40;99.90;;;;;;5034030;28;20064;-77
2022/09/25 04:28:55;;;;;;;6.45;3.85;;;10.40;99.90;;;;;;5054573;28;20029;-77
2022/09/25 04:31:20;;;;;;;4.80;3.83;;;10.40;99.90;;;;;;5069204;28;20066;-77
2022/09/25 04:33:52;;;;;;;6.22;4.38;;;10.40;99.90;;;;;;5053971;28;20021;-76
2022/09/25 04:36:24;;;;;;;7.32;4.38;;;10.40;99.90;;;;;;5053636;28;20162;-76
2022/09/25 04:38:53;;;;;;;5.90;4.20;;;10.40;99.90;;;;;;5042640;28;20148;-76
2022/09/25 04:41:18;;;;;;;5.57;4.22;;;10.40;99.90;;;;;;5034158;28;20025;-76
2022/09/25 04:43:44;;;;;;;11.45;4.72;;;10.40;99.90;;;;;;5034114;28;20040;-76
2022/09/25 04:46:11;;;;;;;9.80;4.70;;;10.40;99.90;;;;;;5040153;28;20050;-76
2022/09/25 04:48:49;;;;;;;5.35;3.67;;;10.40;99.90;;;;;;5048576;28;20040;-77
2022/09/25 04:51:21;;;;;;;5.97;4.63;;;10.40;99.90;;;;;;5048430;28;20040;-76
2022/09/25 04:53:50;;;;;;;8.80;5.30;;;10.40;99.90;;;;;;5039073;28;20018;-76
2022/09/25 04:56:25;;;;;;;8.65;5.10;;;10.40;99.90;;;;;;5048301;28;20478;-76
2022/09/25 04:58:51;;;;;;;6.55;4.53;;;10.40;99.90;;;;;;5059920;28;20090;-76
2022/09/25 05:01:32;;;;;;;7.25;4.82;;;10.40;99.90;;;;;;5051603;28;20547;-76
2022/09/25 05:03:57;;;;;;;7.72;4.55;;;10.40;99.90;;;;;;5043022;28;20029;-76
2022/09/25 05:06:25;;;;;;;7.82;4.90;;;10.50;99.90;;;;;;5047798;28;20044;-76
2022/09/25 05:08:51;;;;;;;8.57;5.18;;;10.50;99.90;;;;;;5065286;28;20029;-75
2022/09/25 05:11:21;;;;;;;8.57;4.45;;;10.50;99.90;;;;;;5047874;28;20474;-75
2022/09/25 05:13:53;;;;;;;4.85;3.72;;;10.50;99.90;;;;;;5059917;28;20171;-73
2022/09/25 05:16:18;;;;;;;6.32;3.88;;;10.50;99.90;;;;;;5053484;28;20040;-73
2022/09/25 05:18:44;;;;;;;4.50;3.38;;;10.50;99.90;;;;;;5068875;28;20029;-73
2022/09/25 05:21:13;;;;;;;8.32;6.15;;;10.50;99.90;;;;;;5068963;28;20029;-73
2022/09/25 05:23:38;;;;;;;6.35;4.53;;;10.50;99.90;;;;;;5053907;28;20028;-73
2022/09/25 05:26:04;;;;;;;7.00;3.60;;;10.50;99.90;;;;;;5053484;28;20025;-73
2022/09/25 05:28:31;;;;;;;4.68;3.05;;;10.50;99.90;;;;;;5053466;28;20025;-73
2022/09/25 05:31:02;;;;;;;4.15;2.80;;;10.50;99.90;;;;;;5047675;28;20549;-76
2022/09/25 05:33:31;;;;;;;4.25;2.63;;;10.60;99.90;;;;;;5038578;28;20108;-75
2022/09/25 05:36:18;;;;;;;4.07;2.97;;;10.50;99.90;;;;;;5051592;28;20413;-75
2022/09/25 05:38:44;;;;;;;5.00;2.85;;;10.50;99.90;;;;;;5053011;28;20126;-75
2022/09/25 05:41:16;;;;;;;6.82;3.22;;;10.50;99.90;;;;;;5052939;28;20061;-75
2022/09/25 05:44:05;;;;;;;7.47;3.25;;;10.60;99.90;;;;;;5053138;28;20029;-75
2022/09/25 05:46:39;;;;;;;4.32;3.17;;;10.60;99.90;;;;;;5050525;28;20041;-75
2022/09/25 05:49:05;;;;;;;6.18;3.55;;;10.60;99.90;;;;;;5053106;28;20037;-75
2022/09/25 05:51:31;;;;;;;4.57;3.05;;;10.60;99.90;;;;;;5053277;28;20029;-74
2022/09/25 05:54:00;;;;;;;6.15;3.30;;;10.60;99.90;;;;;;5044277;28;20057;-69
2022/09/25 05:56:28;;;;;;;5.90;3.75;;;10.60;99.90;;;;;;5043970;28;20355;-70
2022/09/25 05:59:00;;;;;;;5.25;3.25;;;10.70;99.90;;;;;;5043114;28;20464;-73
2022/09/25 06:01:26;;;;;;;6.07;3.60;;;10.70;99.90;;;;;;5026474;28;20052;-73
2022/09/25 06:03:51;;;;;;;6.10;3.55;;;10.70;99.90;;;;;;5042951;28;20029;-70
2022/09/25 06:06:30;;;;;;;6.53;4.20;;;10.70;99.90;;;;;;5036273;28;20032;-72
2022/09/25 06:09:05;;;;;;;7.93;4.03;;;10.80;99.90;;;;;;5037193;28;20043;-70
2022/09/25 06:11:31;;;;;;;5.10;3.55;;;10.80;99.90;;;;;;5039049;28;20039;-72
2022/09/25 06:13:57;;;;;;;6.45;3.70;;;10.80;99.90;;;;;;5049812;28;20107;-76
2022/09/25 06:16:23;;;;;;;8.18;4.45;;;10.90;99.90;;;;;;5052635;28;20457;-75
2022/09/25 06:18:54;;;;;;;5.47;4.20;;;10.90;99.90;;;;;;5053167;28;20159;-76
2022/09/25 06:21:23;;;;;;;6.55;3.97;;;10.90;99.90;;;;;;5052564;28;20107;-76
2022/09/25 06:23:54;;;;;;;7.00;4.28;;;11.00;99.90;;;;;;5052756;28;20447;-76
2022/09/25 06:26:20;;;;;;;7.43;4.15;;;11.00;99.90;;;;;;5043372;28;20025;-77
2022/09/25 06:28:58;;;;;;;8.30;4.60;;;11.10;99.90;;;;;;5065285;28;20032;-77
2022/09/25 06:31:26;;;;;;;7.72;4.47;;;11.10;99.90;;;;;;5048352;28;20496;-77
2022/09/25 06:33:52;;;;;;;6.18;4.60;;;11.20;99.90;;;;;;5041133;28;20025;-76
2022/09/25 06:36:24;;;;;;;6.45;5.03;;;11.20;99.90;;;;;;5045696;28;20382;-75
2022/09/25 06:38:54;;;;;;;9.57;4.72;;;11.30;99.90;;;;;;5048550;28;20048;-76
2022/09/25 06:41:23;;;;;;;6.63;4.00;;;11.30;99.90;;;;;;5051448;28;20536;-78
2022/09/25 06:43:52;;;;;;;5.97;4.47;;;11.40;99.90;;;;;;5052317;28;20021;-77
2022/09/25 06:46:19;;;;;;;6.40;3.50;;;11.40;99.90;;;;;;5048341;28;20033;-77
2022/09/25 06:48:56;;;;;;;9.50;4.43;;;11.40;99.90;;;;;;5042169;28;20417;-75
2022/09/25 06:51:33;;;;;;;6.40;3.80;;;11.50;99.90;;;;;;5032389;28;20087;-77
2022/09/25 06:53:59;;;;;;;5.80;4.07;;;11.60;99.90;;;;;;5035285;28;20504;-75
2022/09/25 06:56:34;;;;;;;5.03;3.58;;;11.60;99.90;;;;;;5067155;28;20029;-74
2022/09/25 06:59:03;;;;;;;8.48;4.25;;;11.70;99.90;;;;;;5052159;28;20482;-75
2022/09/25 07:01:29;;;;;;;8.32;3.58;;;11.80;99.90;;;;;;5050659;28;20029;-75
2022/09/25 07:03:58;;;;;;;6.22;4.30;;;11.80;99.90;;;;;;5052197;28;20511;-75
2022/09/25 07:06:31;;;;;;;7.75;4.03;;;11.90;99.90;;;;;;5067233;28;20025;-75
2022/09/25 07:08:57;;;;;;;7.47;4.00;;;11.90;99.90;;;;;;5052154;28;20386;-75
2022/09/25 07:11:27;;;;;;;6.35;4.43;;;12.00;99.90;;;;;;5051988;28;20029;-75
2022/09/25 07:13:59;;;;;;;8.32;4.35;;;12.00;99.90;;;;;;5052261;28;20053;-74
2022/09/25 07:16:29;;;;;;;6.43;4.05;;;12.10;99.90;;;;;;5067233;28;20112;-74
2022/09/25 07:19:04;;;;;;;5.63;4.05;;;12.10;99.90;;;;;;5048169;28;20393;-76
2022/09/25 07:21:31;;;;;;;7.30;4.82;;;12.20;99.90;;;;;;5052369;28;20021;-75
2022/09/25 07:23:57;;;;;;;8.10;4.60;;;12.30;99.90;;;;;;5052021;28;20024;-76
2022/09/25 07:26:29;;;;;;;5.97;4.18;;;12.30;99.90;;;;;;5051725;28;20029;-76
2022/09/25 07:29:00;;;;;;;6.40;4.63;;;12.40;99.90;;;;;;5050928;28;20021;-75
2022/09/25 07:31:29;;;;;;;8.07;4.80;;;12.40;99.90;;;;;;5067317;28;20520;-76
2022/09/25 07:33:57;;;;;;;7.00;4.63;;;12.40;99.90;;;;;;5051931;28;20071;-76
2022/09/25 07:36:25;;;;;;;8.23;5.47;;;12.40;99.90;;;;;;5051706;28;20083;-76
2022/09/25 07:38:57;;;;;;;7.78;4.80;;;12.40;99.90;;;;;;5051595;28;20478;-76
2022/09/25 07:41:23;;;;;;;7.40;4.93;;;12.40;99.90;;;;;;5031939;28;20061;-75
2022/09/25 07:43:52;;;;;;;6.70;5.25;;;12.50;99.90;;;;;;5032352;28;20033;-75
2022/09/25 07:46:18;;;;;;;7.90;5.60;;;12.50;99.90;;;;;;5044478;23;20084;-75
2022/09/25 07:48:48;;;;;;;6.28;4.90;;;12.50;99.90;;;;;;5002489;28;20609;-75
2022/09/25 07:51:24;;;;;;;7.22;5.47;;;12.50;99.90;;;;;;5004085;28;20025;-74
2022/09/25 07:53:52;;;;;;;8.15;5.18;;;12.60;99.90;;;;;;5007053;28;20046;-73
2022/09/25 07:56:19;;;;;;;8.05;5.00;;;12.60;99.90;;;;;;4999384;28;20026;-74
2022/09/25 07:58:51;;;;;;;6.53;4.85;;;12.70;99.90;;;;;;5008248;28;20022;-74
2022/09/25 08:01:17;;;;;;;9.90;6.03;;;12.80;99.90;;;;;;5008492;28;20117;-75
2022/09/25 08:03:46;;;;;;;6.55;5.18;;;12.80;99.90;;;;;;5010611;28;21006;-75
2022/09/25 08:06:12;;;;;;;7.18;5.60;;;12.90;99.90;;;;;;5009693;28;20199;-74
2022/09/25 08:08:42;;;;;;;10.23;6.00;;;12.90;99.90;;;;;;5007019;28;20108;-74
2022/09/25 08:11:16;;;;;;;7.18;5.05;;;13.00;99.90;;;;;;5009733;28;20064;-74
2022/09/25 08:13:45;;;;;;;9.63;5.30;;;13.00;99.90;;;;;;5002447;28;20591;-75
2022/09/25 08:16:13;;;;;;;8.40;5.50;;;13.00;99.90;;;;;;5010181;28;20545;-74
2022/09/25 08:18:40;;;;;;;7.45;5.82;;;13.10;99.90;;;;;;5011190;28;20079;-74
2022/09/25 08:21:07;;;;;;;7.90;6.00;;;13.10;99.90;;;;;;5013668;28;20038;-74
2022/09/25 08:23:33;;;;;;;6.95;5.00;;;13.20;99.90;;;;;;5012135;28;20053;-75
2022/09/25 08:26:02;;;;;;;8.25;5.60;;;13.20;99.90;;;;;;5011616;28;20060;-75
2022/09/25 08:28:31;;;;;;;8.40;5.80;;;13.30;99.90;;;;;;5011108;28;20085;-74
2022/09/25 08:31:03;;;;;;;7.88;5.00;;;13.30;99.90;;;;;;5011228;28;20487;-74
2022/09/25 08:33:29;;;;;;;6.70;5.20;;;13.40;99.90;;;;;;5010168;28;20026;-74
2022/09/25 08:36:00;;;;;;;6.85;5.32;;;13.40;99.90;;;;;;5004341;28;20104;-74
2022/09/25 08:38:27;;;;;;;6.80;5.13;;;13.40;99.90;;;;;;5008029;28;20033;-74
2022/09/25 08:41:08;;;;;;;8.40;5.63;;;13.50;99.90;;;;;;5004233;28;20037;-74
2022/09/25 08:44:18;;;;;;;8.88;5.18;;;13.50;99.90;;;;;;5006448;28;20028;-74
2022/09/25 08:50:24;;;;;;;7.68;5.18;;;13.60;99.90;;;;;;5009151;28;20040;-75
2022/09/25 08:53:06;;;;;;;7.22;4.88;;;13.60;99.90;;;;;;4997716;28;20453;-76
2022/09/25 08:58:31;;;;;;;8.50;5.75;;;13.80;99.90;;;;;;5007842;28;20552;-74
2022/09/25 09:01:10;;;;;;;8.00;6.05;;;13.80;99.90;;;;;;5019957;28;20037;-74
2022/09/25 09:04:05;;;;;;;7.57;5.25;;;13.90;99.90;;;;;;5035547;28;20129;-74
2022/09/25 09:06:33;;;;;;;8.82;5.85;;;14.00;99.90;;;;;;5008659;28;20034;-74
2022/09/25 09:09:12;;;;;;;10.50;5.18;;;14.00;99.90;;;;;;5007443;28;20029;-74
2022/09/25 09:11:47;;;;;;;6.40;4.75;;;14.20;99.90;;;;;;5000132;28;20593;-73
2022/09/25 09:14:20;;;;;;;8.10;5.57;;;14.20;99.90;;;;;;5006110;28;20029;-74
2022/09/25 09:17:02;;;;;;;8.00;5.25;;;14.30;99.90;;;;;;5007791;28;20105;-74
2022/09/25 09:19:28;;;;;;;9.73;5.22;;;14.30;99.90;;;;;;5026304;28;20022;-74
2022/09/25 09:22:24;;;;;;;8.05;5.30;;;14.40;99.90;;;;;;5008257;28;20036;-74
2022/09/25 09:25:25;;;;;;;7.63;4.82;;;14.40;99.90;;;;;;5006189;28;20125;-74
2022/09/25 09:27:56;;;;;;;6.97;5.07;;;14.50;99.90;;;;;;5008916;28;20050;-74
2022/09/25 09:30:39;;;;;;;6.50;5.07;;;14.60;99.90;;;;;;5006561;28;20544;-74
2022/09/25 09:33:37;;;;;;;5.90;4.70;;;14.60;99.90;;;;;;5003859;28;20027;-74
2022/09/25 09:36:25;;;;;;;7.60;5.43;;;14.70;99.90;;;;;;5022149;28;20474;-74
2022/09/25 09:39:18;;;;;;;5.50;4.72;;;14.70;99.90;;;;;;5007518;28;20396;-75
2022/09/25 09:41:57;;;;;;;7.20;5.18;;;14.80;99.90;;;;;;5000714;28;20023;-74
2022/09/25 09:44:50;;;;;;;6.65;5.55;;;14.90;99.90;;;;;;5007449;28;20025;-75
2022/09/25 09:47:43;;;;;;;7.55;5.15;;;15.00;99.90;;;;;;5009005;28;20092;-75
2022/09/25 09:50:31;;;;;;;8.30;5.05;;;15.10;99.90;;;;;;5006482;28;20034;-73
2022/09/25 09:53:04;;;;;;;5.63;4.47;;;15.20;99.90;;;;;;5021754;28;20109;-74
2022/09/25 09:55:49;;;;;;;6.18;4.57;;;15.30;99.90;;;;;;5010081;28;20032;-74
2022/09/25 09:58:28;;;;;;;6.82;4.43;;;15.40;99.90;;;;;;5006651;28;20029;-75
2022/09/25 10:00:57;;;;;;;6.70;4.90;;;15.40;99.90;;;;;;5005200;28;20025;-74
2022/09/25 10:03:27;;;;;;;8.18;5.90;;;15.50;99.90;;;;;;5006348;28;20072;-74
2022/09/25 10:06:12;;;;;;;8.65;5.53;;;15.50;99.90;;;;;;5004897;28;20038;-74
2022/09/25 10:08:40;;;;;;;6.18;3.85;;;15.60;99.90;;;;;;5004311;28;20082;-74
2022/09/25 10:11:17;;;;;;;6.80;4.55;;;15.60;99.90;;;;;;5008890;28;20104;-76
2022/09/25 10:13:43;;;;;;;5.20;3.92;;;15.60;99.90;;;;;;5006681;28;20077;-73
2022/09/25 10:16:10;;;;;;;5.43;3.88;;;15.70;99.90;;;;;;5003581;28;20490;-74
2022/09/25 10:18:59;;;;;;;5.28;3.53;;;15.70;99.90;;;;;;5008197;28;20397;-74
2022/09/25 10:21:39;;;;;;;5.70;4.85;;;15.70;99.90;;;;;;5004796;28;20505;-74
2022/09/25 10:24:07;;;;;;;6.63;4.63;;;15.80;99.90;;;;;;5019979;28;20072;-74
2022/09/25 10:26:38;;;;;;;6.05;4.32;;;15.80;99.90;;;;;;5007660;28;20025;-74
2022/09/25 10:29:18;;;;;;;5.80;3.85;;;15.90;99.90;;;;;;5008109;28;20024;-74
2022/09/25 10:31:44;;;;;;;5.85;4.28;;;15.80;99.90;;;;;;5004688;28;20026;-74
2022/09/25 10:34:21;;;;;;;6.15;4.40;;;15.90;99.90;;;;;;5003009;28;20355;-74
2022/09/25 10:36:53;;;;;;;7.82;4.90;;;15.90;99.90;;;;;;5006863;28;20060;-73
2022/09/25 10:39:30;;;;;;;4.53;3.67;;;16.00;99.90;;;;;;5002710;28;20471;-73
2022/09/25 10:42:07;;;;;;;4.78;3.85;;;16.00;99.90;;;;;;5005051;28;20072;-74
2022/09/25 10:44:32;;;;;;;6.47;4.80;;;15.90;99.90;;;;;;5006906;28;20018;-76
2022/09/25 10:50:25;;;;;;;6.82;4.30;;;15.90;99.90;;;;;;5003087;28;20040;-73
2022/09/25 10:52:58;;;;;;;6.38;4.30;;;15.90;99.90;;;;;;5007324;28;20189;-72
2022/09/25 10:55:29;;;;;;;6.45;3.55;;;15.90;99.90;;;;;;5009040;28;20445;-72
2022/09/25 10:58:10;;;;;;;5.93;4.60;;;16.00;99.90;;;;;;5007883;28;20506;-72
2022/09/25 11:00:51;;;;;;;6.25;4.07;;;16.10;99.90;;;;;;5000586;28;20060;-72
2022/09/25 11:03:43;;;;;;;6.90;4.72;;;16.20;99.90;;;;;;5008298;28;20045;-72
2022/09/25 11:06:33;;;;;;;5.78;4.55;;;16.20;99.90;;;;;;4992761;28;20049;-72
2022/09/25 11:09:21;;;;;;;7.68;5.35;;;16.30;99.90;;;;;;5007624;28;20025;-72
2022/09/25 11:11:48;;;;;;;7.28;4.50;;;16.30;99.90;;;;;;5005100;28;20817;-72
2022/09/25 11:14:31;;;;;;;6.70;4.47;;;16.40;99.90;;;;;;5006963;28;20080;-72
2022/09/25 11:16:59;;;;;;;10.63;4.88;;;16.50;99.90;;;;;;5007042;28;20026;-72
2022/09/25 11:19:30;;;;;;;11.98;4.90;;;16.60;99.90;;;;;;5003860;28;20099;-72
2022/09/25 11:22:18;;;;;;;7.15;4.32;;;16.70;99.90;;;;;;5008260;28;20022;-72
2022/09/25 11:25:02;;;;;;;7.45;5.68;;;16.80;99.90;;;;;;5005687;28;20501;-72
2022/09/25 11:27:45;;;;;;;;;;;16.80;99.90;;;;;;5006045;28;20022;-72
2022/09/25 11:30:20;;;;;;;5.95;4.53;;;16.80;99.90;;;;;;4996404;28;19916;-73
2022/09/25 11:32:57;;;;;;;9.80;5.10;;;16.90;99.90;;;;;;5004216;28;20037;-73
2022/09/25 11:35:32;;;;;;;6.05;4.55;;;16.90;99.90;;;;;;5029069;28;20084;-73
2022/09/25 11:38:13;;;;;;;6.75;4.53;;;16.90;99.90;;;;;;5010688;28;20030;-72
2022/09/25 11:41:11;;;;;;;10.20;6.70;;;16.90;99.90;;;;;;5009972;28;20030;-72
2022/09/25 11:44:17;;;;;;;9.98;4.90;;;16.80;99.90;;;;;;5011803;28;20071;-72
2022/09/25 11:46:55;;;;;;;7.13;4.80;;;16.80;99.90;;;;;;5003219;28;20038;-72
2022/09/25 11:49:40;;;;;;;7.88;4.75;;;16.80;99.90;;;;;;5007415;28;20026;-74
2022/09/25 11:52:05;;;;;;;8.45;4.55;;;16.70;99.90;;;;;;5014592;28;20026;-73
2022/09/25 11:54:49;;;;;;;9.52;4.30;;;16.70;99.90;;;;;;5009476;28;20025;-73
2022/09/25 11:57:14;;;;;;;8.40;4.82;;;16.70;99.90;;;;;;5010431;28;20037;-73
2022/09/25 12:00:06;;;;;;;8.43;5.80;;;16.60;99.90;;;;;;5005014;28;24043;-71
2022/09/25 12:02:47;;;;;;;8.60;5.07;;;16.60;99.90;;;;;;5010284;28;20514;-71
2022/09/25 12:05:22;;;;;;;7.35;4.65;;;16.60;99.90;;;;;;5007025;28;20171;-72
2022/09/25 12:08:25;;;;;;;9.02;4.60;;;16.50;99.90;;;;;;5005750;28;20026;-72
2022/09/25 12:10:55;;;;;;;6.07;4.65;;;16.50;99.90;;;;;;5009654;28;20102;-74
2022/09/25 12:13:39;;;;;;;6.18;4.43;;;16.50;99.90;;;;;;5005545;28;20050;-72
2022/09/25 12:16:12;;;;;;;7.13;5.22;;;16.40;99.90;;;;;;5008557;28;20018;-73
2022/09/25 12:19:04;;;;;;;7.60;4.70;;;16.30;99.90;;;;;;5006949;28;20039;-72
2022/09/25 12:21:54;;;;;;;7.97;5.60;;;16.30;99.90;;;;;;5006664;28;20082;-72
2022/09/25 12:24:25;;;;;;;8.25;5.00;;;16.20;99.90;;;;;;5011198;28;20105;-73
2022/09/25 12:26:56;;;;;;;10.02;4.95;;;16.10;99.90;;;;;;5005138;28;20112;-72
2022/09/25 12:29:41;;;;;;;8.57;5.35;;;16.00;99.90;;;;;;5006152;28;20027;-73
2022/09/25 12:32:36;;;;;;;5.90;4.72;;;16.00;99.90;;;;;;5004186;28;20196;-72
2022/09/25 12:35:09;;;;;;;7.53;4.13;;;16.00;99.90;;;;;;4997339;28;20033;-73
2022/09/25 12:37:50;;;;;;;6.80;5.28;;;16.00;99.90;;;;;;5001999;28;20053;-74
2022/09/25 12:40:37;;;;;;;8.07;6.28;;;16.00;99.90;;;;;;5002568;28;20128;-72
2022/09/25 12:43:45;;;;;;;8.25;5.35;;;16.10;99.90;;;;;;5001225;28;20014;-72
2022/09/25 12:46:48;;;;;;;9.68;5.25;;;16.10;99.90;;;;;;4934559;29;20036;-73
2022/09/25 12:49:26;;;;;;;6.15;4.45;;;16.20;99.90;;;;;;4949891;28;20041;-74
2022/09/25 12:51:58;;;;;;;6.90;4.75;;;16.30;99.90;;;;;;5008773;28;20022;-72
2022/09/25 12:54:44;;;;;;;7.25;5.63;;;16.40;99.90;;;;;;5001508;28;20100;-74
2022/09/25 12:57:31;;;;;;;9.07;4.85;;;16.40;99.90;;;;;;5008153;28;20376;-73
2022/09/25 13:00:18;;;;;;;9.15;4.55;;;16.50;99.90;;;;;;5006904;28;20034;-74
2022/09/25 13:03:10;;;;;;;7.43;5.25;;;16.60;99.90;;;;;;5009710;28;22760;-73
2022/09/25 13:05:45;;;;;;;7.13;5.15;;;16.60;99.90;;;;;;5003842;28;20018;-74
2022/09/25 13:08:57;;;;;;;10.18;6.10;;;16.70;99.90;;;;;;5006096;28;20025;-73
2022/09/25 13:11:33;;;;;;;8.05;4.72;;;16.70;99.90;;;;;;4998908;28;20491;-74
2022/09/25 13:14:01;;;;;;;8.10;4.93;;;16.70;99.90;;;;;;5006107;28;20108;-72
2022/09/25 13:16:30;;;;;;;11.85;5.22;;;16.80;99.90;;;;;;5006227;28;20049;-73
2022/09/25 13:19:22;;;;;;;9.93;5.47;;;16.80;99.90;;;;;;5007270;28;20105;-74
2022/09/25 13:21:49;;;;;;;8.88;5.30;;;16.80;99.90;;;;;;4995600;28;20080;-73
2022/09/25 13:24:17;;;;;;;8.02;4.88;;;16.70;99.90;;;;;;5021960;28;20116;-73
2022/09/25 13:26:51;;;;;;;8.57;5.90;;;16.70;99.90;;;;;;5007104;28;20085;-68
2022/09/25 13:29:28;;;;;;;10.15;5.65;;;16.70;99.90;;;;;;5004636;28;20069;-68
2022/09/25 13:32:17;;;;;;;9.10;5.78;;;16.80;99.90;;;;;;4996171;28;20038;-73
2022/09/25 13:34:44;;;;;;;8.93;5.15;;;16.80;99.90;;;;;;5003744;28;20018;-68
2022/09/25 13:37:12;;;;;;;10.15;5.10;;;16.80;99.90;;;;;;5007553;28;20029;-75
2022/09/25 13:42:31;;;;;;;7.50;5.40;;;16.80;99.90;;;;;;5008719;28;20514;-74
2022/09/25 13:45:20;;;;;;;6.95;5.57;;;16.90;99.90;;;;;;5009795;28;20029;-74
2022/09/25 13:47:59;;;;;;;8.02;5.40;;;16.90;99.90;;;;;;5018512;23;20076;-76